KALS/ALS METAR and TAF weather

Enter ICAO airport designator
Station Type Date Time Source
KALS METAR 2018/12/10 23:52 UTC NOAA

KALS 102352Z AUTO 03005KT 10SM CLR M02/M17 A3029 RMK AO2 SLP334 T10221167 10039 21028 56006


Station Type Date Time Source
KALS Decoded METAR 2018/12/10 23:52 UTC NOAA

SAN LUIS VALLEY REGIONAL, CO, United States (KALS) 37-26N 105-52W 2299M
Dec 10, 2018 - 06:52 PM EST / 2018.12.10 2352 UTC
Wind: from the NNE (030 degrees) at 6 MPH (5 KT):0
Visibility: 10 mile(s):0
Sky conditions: clear
Temperature: 28.0 F (-2.2 C)
Windchill: 21 F (-6 C):1
Dew Point: 1.9 F (-16.7 C)
Relative Humidity: 31%
Pressure (altimeter): 30.29 in. Hg (1025 hPa)
Pressure tendency: 0.02 inches (0.6 hPa) lower than three hours ago
ob: KALS 102352Z AUTO 03005KT 10SM CLR M02/M17 A3029 RMK AO2 SLP334 T10221167 10039 21028 56006
cycle: 0

Station Type Date Time Source
KALS TAF 2018/12/10 18:24 UTC NOAA

TAF KALS 101723Z 1018/1118 VRB05KT P6SM FEW100 BKN200


Example: see airport list